createdAt,value
2022-08-25T00:00:04.547Z,28.0
2022-08-25T00:05:03.173Z,28.4
2022-08-25T00:10:01.363Z,29.5
2022-08-25T00:15:01.879Z,28.8
2022-08-25T00:20:01.260Z,28.8
2022-08-25T00:25:01.276Z,28.0
2022-08-25T00:30:02.766Z,26.9
2022-08-25T00:35:01.262Z,27.4
2022-08-25T00:40:01.539Z,28.0
2022-08-25T00:45:02.308Z,27.2
2022-08-25T00:50:02.291Z,27.4
2022-08-25T00:55:08.628Z,27.8
2022-08-25T01:00:13.818Z,27.3
2022-08-25T01:05:01.260Z,26.7
2022-08-25T01:10:01.275Z,26.6
2022-08-25T01:15:05.538Z,27.3
2022-08-25T01:20:01.263Z,27.1
2022-08-25T01:25:01.282Z,26.8
2022-08-25T01:30:01.724Z,26.8
2022-08-25T01:35:01.268Z,27.8
2022-08-25T01:45:01.745Z,28.5
2022-08-25T01:50:01.369Z,29.6
2022-08-25T01:55:01.282Z,30.0
2022-08-25T02:00:04.252Z,29.2
2022-08-25T02:05:01.187Z,28.8
2022-08-25T02:10:03.911Z,28.5
2022-08-25T02:15:02.968Z,28.2
2022-08-25T02:20:01.286Z,28.0
2022-08-25T02:25:01.368Z,29.1
2022-08-25T02:30:02.968Z,30.5
2022-08-25T02:35:01.279Z,31.0
2022-08-25T02:40:01.394Z,30.9
2022-08-25T02:45:02.598Z,30.7
2022-08-25T02:50:03.160Z,29.0
2022-08-25T02:55:01.275Z,27.9
2022-08-25T03:00:03.077Z,27.8
2022-08-25T03:05:01.463Z,27.9
2022-08-25T03:10:06.875Z,29.4
2022-08-25T03:15:02.626Z,30.2
2022-08-25T03:20:01.398Z,31.0
2022-08-25T03:25:01.298Z,30.5
2022-08-25T03:30:01.809Z,29.2
2022-08-25T03:35:01.314Z,28.2
2022-08-25T03:40:02.462Z,28.9
2022-08-25T03:45:02.732Z,28.6
2022-08-25T03:50:01.268Z,28.8
2022-08-25T03:55:01.317Z,29.8
2022-08-25T04:00:03.783Z,29.4
2022-08-25T04:05:01.337Z,28.0
2022-08-25T04:10:01.305Z,28.2
2022-08-25T04:15:03.140Z,27.8
2022-08-25T04:20:01.221Z,28.8
2022-08-25T04:25:01.330Z,29.3
2022-08-25T04:30:01.770Z,29.8
2022-08-25T04:35:01.289Z,30.8
2022-08-25T04:40:01.449Z,32.1
2022-08-25T04:45:02.598Z,31.3
2022-08-25T04:50:01.322Z,32.0
2022-08-25T04:55:01.189Z,33.3
2022-08-25T05:00:02.931Z,33.7
2022-08-25T05:05:01.706Z,34.2
2022-08-25T05:10:02.189Z,35.1
2022-08-25T05:15:02.367Z,36.6
2022-08-25T05:20:01.297Z,36.5
2022-08-25T05:25:01.314Z,36.3
2022-08-25T05:30:01.901Z,36.8
2022-08-25T05:35:01.313Z,37.0
2022-08-25T05:40:01.408Z,37.0
2022-08-25T05:45:02.739Z,37.6
2022-08-25T05:50:01.402Z,38.3
2022-08-25T05:55:01.318Z,39.1
2022-08-25T06:00:03.995Z,39.5
2022-08-25T06:05:01.786Z,40.3
2022-08-25T06:10:01.363Z,41.6
2022-08-25T06:15:02.184Z,42.4
2022-08-25T06:20:03.466Z,42.0
2022-08-25T06:25:02.878Z,42.6
2022-08-25T06:30:10.973Z,42.4
2022-08-25T06:35:02.557Z,42.0
2022-08-25T06:40:03.302Z,41.1
2022-08-25T06:45:02.534Z,41.6
2022-08-25T06:50:02.329Z,41.0
2022-08-25T06:55:02.328Z,40.4
2022-08-25T07:00:04.400Z,40.5
2022-08-25T07:05:01.582Z,41.0
2022-08-25T07:10:01.318Z,40.5
2022-08-25T07:15:21.133Z,40.9
2022-08-25T07:20:02.105Z,41.4
2022-08-25T07:25:01.348Z,41.3
2022-08-25T07:30:06.565Z,40.3
2022-08-25T07:35:01.638Z,39.7
2022-08-25T07:40:04.964Z,39.5
2022-08-25T07:45:03.131Z,39.0
2022-08-25T07:50:05.944Z,37.5
2022-08-25T07:55:02.123Z,37.7
2022-08-25T08:00:06.120Z,37.3
2022-08-25T08:05:02.043Z,36.8
2022-08-25T08:15:02.424Z,35.8
2022-08-25T08:20:01.633Z,34.6
2022-08-25T08:25:03.214Z,33.8
2022-08-25T08:30:03.465Z,33.0
2022-08-25T08:35:01.471Z,32.2
2022-08-25T08:45:15.816Z,32.1
2022-08-25T08:50:01.216Z,32.3
2022-08-25T08:55:05.733Z,32.2
2022-08-25T09:00:05.024Z,32.4
2022-08-25T09:05:01.340Z,32.1
2022-08-25T09:10:01.621Z,31.5
2022-08-25T09:15:17.182Z,31.4
2022-08-25T09:20:01.250Z,31.2
2022-08-25T09:25:08.746Z,30.5
2022-08-25T09:30:10.311Z,30.6
2022-08-25T09:35:02.843Z,30.7
2022-08-25T09:45:02.324Z,30.0
2022-08-25T09:50:05.472Z,30.6
2022-08-25T09:55:02.454Z,30.1
2022-08-25T10:00:16.968Z,29.6
2022-08-25T10:05:01.359Z,30.4
2022-08-25T10:10:01.266Z,29.2
2022-08-25T10:15:30.671Z,26.3
2022-08-25T10:20:03.851Z,24.2
2022-08-25T10:25:04.929Z,22.1
2022-08-25T10:30:06.358Z,18.8
2022-08-25T10:35:12.185Z,17.6
2022-08-25T10:40:01.359Z,18.0
2022-08-25T10:45:22.253Z,18.2
2022-08-25T10:50:02.860Z,17.4
2022-08-25T10:55:17.014Z,18.1
2022-08-25T11:00:16.615Z,18.2
2022-08-25T11:10:07.389Z,17.1
2022-08-25T11:15:08.614Z,18.1
2022-08-25T11:20:06.451Z,18.0
2022-08-25T11:25:04.298Z,18.4
2022-08-25T11:30:07.295Z,17.8
2022-08-25T11:35:04.533Z,18.4
2022-08-25T11:40:01.300Z,18.2
2022-08-25T11:45:16.780Z,17.8
2022-08-25T11:50:01.073Z,18.3
2022-08-25T11:55:05.612Z,18.9
2022-08-25T12:00:05.982Z,19.8
2022-08-25T12:05:01.508Z,20.8
2022-08-25T12:15:18.242Z,20.4
2022-08-25T12:20:01.704Z,21.2
2022-08-25T12:25:01.089Z,21.3
2022-08-25T12:30:21.383Z,21.0
2022-08-25T12:35:01.946Z,22.0
2022-08-25T12:40:03.540Z,22.1
2022-08-25T12:45:12.647Z,21.5
2022-08-25T12:50:01.295Z,21.4
2022-08-25T12:55:01.454Z,20.3
2022-08-25T13:00:22.036Z,19.8
2022-08-25T13:05:02.749Z,19.3
2022-08-25T13:15:02.544Z,18.3
2022-08-25T13:20:03.105Z,19.8
2022-08-25T13:25:01.671Z,19.9
2022-08-25T13:30:08.553Z,19.5
2022-08-25T13:35:02.629Z,19.3
2022-08-25T13:40:04.708Z,18.4
2022-08-25T13:45:04.546Z,16.9
2022-08-25T13:50:01.419Z,16.7
2022-08-25T13:55:09.257Z,16.8
2022-08-25T14:00:05.751Z,18.2
2022-08-25T14:05:02.091Z,19.9
2022-08-25T14:10:05.380Z,21.0
2022-08-25T14:15:12.309Z,21.0
2022-08-25T14:20:01.632Z,22.4
2022-08-25T14:25:01.409Z,21.5
2022-08-25T14:30:02.095Z,21.3
2022-08-25T14:40:03.428Z,22.4
2022-08-25T14:45:01.844Z,22.0
2022-08-25T14:50:02.455Z,23.4
2022-08-25T14:55:01.901Z,23.2
2022-08-25T15:00:03.109Z,23.0
2022-08-25T15:05:01.541Z,21.8
2022-08-25T15:10:01.404Z,21.3
2022-08-25T15:15:02.897Z,20.6
2022-08-25T15:20:03.417Z,20.9
2022-08-25T15:25:02.059Z,21.7
2022-08-25T15:30:03.523Z,21.5
2022-08-25T15:35:01.394Z,22.3
2022-08-25T15:40:01.588Z,22.1
2022-08-25T15:45:06.293Z,21.4
2022-08-25T15:50:02.102Z,21.3
2022-08-25T15:55:02.782Z,22.5
2022-08-25T16:00:04.821Z,21.2
2022-08-25T16:05:02.116Z,21.3
2022-08-25T16:10:03.520Z,21.4
2022-08-25T16:15:03.496Z,20.5
2022-08-25T16:20:01.492Z,20.6
2022-08-25T16:25:01.306Z,21.8
2022-08-25T16:30:05.172Z,21.9
2022-08-25T16:35:01.457Z,21.0
2022-08-25T16:40:01.671Z,21.2
2022-08-25T16:45:05.402Z,20.6
2022-08-25T16:50:03.206Z,20.1
2022-08-25T16:55:01.406Z,21.5
2022-08-25T17:00:04.268Z,23.1
2022-08-25T17:15:06.769Z,23.6
2022-08-25T17:20:05.777Z,21.6
2022-08-25T17:25:07.511Z,20.9
2022-08-25T17:30:03.888Z,20.7
2022-08-25T17:35:04.751Z,20.8
2022-08-25T17:40:05.554Z,19.6
2022-08-25T17:45:02.475Z,20.4
2022-08-25T17:55:01.874Z,21.5
2022-08-25T18:00:03.317Z,20.9
2022-08-25T18:05:01.423Z,23.4
2022-08-25T18:10:01.118Z,22.3
2022-08-25T18:15:03.261Z,21.8
2022-08-25T18:20:01.461Z,21.6
2022-08-25T18:25:03.176Z,22.4
2022-08-25T18:30:03.400Z,20.8
2022-08-25T18:35:01.431Z,20.9
2022-08-25T18:40:01.688Z,21.9
2022-08-25T18:45:02.788Z,22.2
2022-08-25T18:50:05.635Z,22.5
2022-08-25T18:55:01.556Z,23.0
2022-08-25T19:00:03.758Z,25.2
2022-08-25T19:05:11.231Z,26.6
2022-08-25T19:10:02.614Z,27.8
2022-08-25T19:15:07.979Z,28.4
2022-08-25T19:20:01.832Z,28.6
2022-08-25T19:25:01.963Z,28.3
2022-08-25T19:30:03.867Z,27.3
2022-08-25T19:35:01.861Z,26.5
2022-08-25T19:40:01.688Z,25.6
2022-08-25T19:45:07.041Z,26.0
2022-08-25T19:50:01.491Z,26.1
2022-08-25T19:55:01.463Z,26.6
2022-08-25T20:00:06.148Z,27.1
2022-08-25T20:05:02.437Z,28.1
2022-08-25T20:10:01.454Z,27.8
2022-08-25T20:15:03.449Z,27.2
2022-08-25T20:20:01.475Z,26.8
2022-08-25T20:25:14.199Z,26.9
2022-08-25T20:30:05.777Z,26.2
2022-08-25T20:35:02.006Z,25.3
2022-08-25T20:45:01.946Z,25.7
2022-08-25T20:50:07.101Z,25.8
2022-08-25T20:55:01.486Z,26.7
2022-08-25T21:00:04.699Z,27.6
2022-08-25T21:05:01.469Z,28.3
2022-08-25T21:10:01.742Z,28.2
2022-08-25T21:15:02.870Z,27.9
2022-08-25T21:20:02.247Z,26.6
2022-08-25T21:25:03.163Z,27.5
2022-08-25T21:30:02.809Z,27.2
2022-08-25T21:35:08.060Z,28.6
2022-08-25T21:40:01.612Z,29.7
2022-08-25T21:45:03.925Z,31.3
2022-08-25T21:50:01.480Z,31.1
2022-08-25T21:55:09.204Z,31.9
2022-08-25T22:00:05.366Z,30.9
2022-08-25T22:05:01.489Z,31.0
2022-08-25T22:10:01.526Z,31.1
2022-08-25T22:15:03.238Z,32.7
2022-08-25T22:20:04.060Z,32.6
2022-08-25T22:25:01.510Z,33.2
2022-08-25T22:30:05.374Z,33.1
2022-08-25T22:35:01.496Z,33.6
2022-08-25T22:40:01.874Z,32.5
2022-08-25T22:45:03.134Z,32.0
2022-08-25T22:50:01.851Z,31.6
2022-08-25T22:55:01.694Z,32.0
2022-08-25T23:00:05.221Z,31.8
2022-08-25T23:10:04.201Z,32.9
2022-08-25T23:15:05.436Z,33.4
2022-08-25T23:20:01.551Z,35.3
2022-08-25T23:25:03.453Z,36.8
2022-08-25T23:30:02.103Z,38.2
2022-08-25T23:35:02.295Z,39.2
2022-08-25T23:40:01.653Z,39.6
2022-08-25T23:45:03.226Z,37.3
2022-08-25T23:50:01.527Z,35.2
2022-08-25T23:55:02.027Z,33.6
